createdAt,value
2023-10-11T00:03:26.775Z,6.40
2023-10-11T00:08:28.637Z,6.00
2023-10-11T00:13:34.697Z,5.60
2023-10-11T00:18:38.866Z,5.77
2023-10-11T00:23:42.940Z,5.93
2023-10-11T00:28:45.170Z,5.27
2023-10-11T00:33:49.145Z,4.87
2023-10-11T00:38:52.885Z,5.43
2023-10-11T00:43:55.588Z,5.47
2023-10-11T00:49:09.603Z,5.30
2023-10-11T00:54:16.991Z,5.67
2023-10-11T00:59:22.543Z,5.70
2023-10-11T01:04:26.994Z,6.27
2023-10-11T01:09:30.258Z,6.10
2023-10-11T01:14:51.952Z,4.80
2023-10-11T01:19:54.385Z,5.20
2023-10-11T01:24:59.426Z,5.17
2023-10-11T01:30:01.194Z,5.23
2023-10-11T01:35:03.063Z,5.10
2023-10-11T01:40:11.170Z,5.27
2023-10-11T01:45:13.126Z,5.57
2023-10-11T01:50:16.911Z,5.60
2023-10-11T01:55:18.623Z,5.13
2023-10-11T02:00:30.605Z,4.83
2023-10-11T02:05:32.794Z,5.43
2023-10-11T02:10:37.606Z,5.60
2023-10-11T02:15:41.180Z,5.40
2023-10-11T02:20:46.601Z,5.00
2023-10-11T02:25:49.242Z,4.90
2023-10-11T02:30:51.027Z,5.47
2023-10-11T02:35:58.219Z,4.90
2023-10-11T02:41:00.901Z,4.80
2023-10-11T02:46:05.101Z,5.37
2023-10-11T02:51:14.795Z,4.70
2023-10-11T02:56:17.123Z,5.33
2023-10-11T03:01:22.343Z,4.90
2023-10-11T03:06:24.315Z,5.00
2023-10-11T03:11:27.167Z,5.93
2023-10-11T03:16:33.538Z,5.17
2023-10-11T03:21:35.305Z,4.83
2023-10-11T03:26:39.781Z,5.20
2023-10-11T03:31:41.704Z,4.80
2023-10-11T03:36:50.904Z,4.93
2023-10-11T03:41:52.568Z,4.63
2023-10-11T03:46:57.593Z,5.03
2023-10-11T03:51:59.236Z,5.10
2023-10-11T03:57:05.368Z,5.67
2023-10-11T04:02:13.234Z,4.97
2023-10-11T04:07:14.973Z,5.37
2023-10-11T04:12:16.639Z,5.67
2023-10-11T04:17:23.057Z,5.03
2023-10-11T04:22:32.573Z,5.90
2023-10-11T04:27:37.384Z,4.73
2023-10-11T04:32:39.014Z,5.20
2023-10-11T04:37:53.266Z,5.47
2023-10-11T04:43:07.670Z,5.57
2023-10-11T04:48:09.518Z,5.13
2023-10-11T04:53:18.414Z,5.07
2023-10-11T04:58:38.453Z,5.30
2023-10-11T05:03:41.161Z,4.83
2023-10-11T05:08:52.764Z,4.80
2023-10-11T05:14:26.973Z,5.27
2023-10-11T05:19:29.879Z,4.73
2023-10-11T05:24:53.058Z,5.47
2023-10-11T05:30:17.916Z,4.83
2023-10-11T05:35:26.371Z,5.50
2023-10-11T05:40:47.605Z,5.50
2023-10-11T05:46:08.077Z,5.57
2023-10-11T05:51:09.808Z,4.80
2023-10-11T05:56:19.370Z,5.23
2023-10-11T06:01:22.622Z,5.53
2023-10-11T06:06:25.438Z,6.20
2023-10-11T06:11:37.437Z,5.40
2023-10-11T06:16:39.285Z,5.77
2023-10-11T06:21:57.285Z,6.13
2023-10-11T06:27:19.033Z,5.20
2023-10-11T06:32:23.268Z,6.10
2023-10-11T06:37:27.644Z,5.40
2023-10-11T06:42:32.860Z,5.50
2023-10-11T06:47:37.920Z,5.47
2023-10-11T06:52:46.468Z,4.87
2023-10-11T06:57:52.433Z,5.17
2023-10-11T07:03:09.318Z,5.73
2023-10-11T07:08:11.892Z,6.27
2023-10-11T07:13:14.839Z,6.23
2023-10-11T07:18:26.687Z,5.63
2023-10-11T07:23:36.756Z,6.17
2023-10-11T07:28:38.946Z,5.87
2023-10-11T07:33:40.754Z,5.37
2023-10-11T07:38:44.861Z,5.30
2023-10-11T07:43:46.601Z,5.07
2023-10-11T07:48:49.757Z,4.90
2023-10-11T07:53:51.577Z,5.37
2023-10-11T07:58:55.417Z,4.60
2023-10-11T08:03:59.829Z,5.10
2023-10-11T08:09:01.713Z,5.23
2023-10-11T08:14:14.451Z,5.60
2023-10-11T08:19:16.435Z,4.63
2023-10-11T08:24:18.270Z,4.57
2023-10-11T08:29:32.064Z,4.60
2023-10-11T08:34:33.984Z,4.10
2023-10-11T08:39:43.421Z,4.47
2023-10-11T08:44:46.315Z,4.30
2023-10-11T08:49:49.796Z,4.90
2023-10-11T08:54:52.137Z,3.70
2023-10-11T09:00:00.646Z,4.65
2023-10-11T09:05:08.120Z,4.32
2023-10-11T09:10:27.420Z,4.63
2023-10-11T09:15:43.962Z,4.78
2023-10-11T09:21:10.772Z,4.63
2023-10-11T09:26:15.294Z,3.30
2023-10-11T09:31:22.429Z,3.97
2023-10-11T09:36:26.237Z,4.53
2023-10-11T09:41:30.158Z,3.80
2023-10-11T09:46:34.720Z,4.50
2023-10-11T09:51:37.048Z,4.43
2023-10-11T09:57:00.838Z,3.55
2023-10-11T10:02:06.126Z,4.03
2023-10-11T10:07:14.464Z,4.45
2023-10-11T10:12:21.841Z,3.55
2023-10-11T10:17:24.018Z,4.07
2023-10-11T10:22:30.492Z,4.28
2023-10-11T10:27:35.473Z,3.67
2023-10-11T10:32:37.326Z,3.50
2023-10-11T10:37:47.995Z,3.50
2023-10-11T10:43:08.141Z,3.72
2023-10-11T10:48:41.121Z,3.58
2023-10-11T10:53:51.897Z,3.30
2023-10-11T10:59:05.761Z,3.60
2023-10-11T11:06:14.232Z,3.75
2023-10-11T11:11:27.166Z,3.60
2023-10-11T11:16:30.355Z,3.78
2023-10-11T11:21:32.186Z,3.30
2023-10-11T11:26:34.473Z,4.13
2023-10-11T11:31:57.347Z,3.70
2023-10-11T11:37:14.898Z,4.20
2023-10-11T11:42:26.165Z,3.65
2023-10-11T11:47:30.358Z,3.88
2023-10-11T11:52:32.357Z,3.80
2023-10-11T11:57:36.529Z,3.53
2023-10-11T12:02:41.887Z,4.28
2023-10-11T12:07:44.569Z,3.63
2023-10-11T12:12:46.200Z,4.10
2023-10-11T12:17:50.231Z,3.53
2023-10-11T12:22:51.941Z,3.50
2023-10-11T12:27:54.829Z,3.38
2023-10-11T12:32:58.389Z,3.38
2023-10-11T12:38:01.592Z,3.63
2023-10-11T12:43:08.054Z,3.50
2023-10-11T12:48:13.302Z,3.50
2023-10-11T12:53:15.181Z,3.42
2023-10-11T12:58:18.894Z,4.40
2023-10-11T13:03:27.529Z,3.58
2023-10-11T13:08:29.828Z,3.60
2023-10-11T13:13:31.585Z,4.00
2023-10-11T13:18:38.686Z,3.78
2023-10-11T13:23:44.961Z,3.58
2023-10-11T13:28:54.645Z,3.83
2023-10-11T13:33:57.213Z,3.17
2023-10-11T13:38:59.012Z,3.90
2023-10-11T13:44:01.958Z,3.25
2023-10-11T13:49:22.031Z,3.47
2023-10-11T13:54:35.825Z,3.38
2023-10-11T13:59:39.175Z,3.53
2023-10-11T14:04:50.808Z,3.42
2023-10-11T14:09:55.335Z,3.85
2023-10-11T14:14:57.473Z,3.53
2023-10-11T14:20:01.336Z,3.08
2023-10-11T14:25:08.635Z,3.47
2023-10-11T14:30:14.217Z,4.10
2023-10-11T14:35:18.300Z,3.50
2023-10-11T14:40:22.473Z,3.50
2023-10-11T14:45:25.191Z,3.50
2023-10-11T14:50:28.312Z,3.30
2023-10-11T14:55:30.625Z,4.03
2023-10-11T15:00:34.737Z,3.72
2023-10-11T15:05:37.859Z,3.38
2023-10-11T15:10:45.103Z,3.15
2023-10-11T15:15:46.783Z,3.67
2023-10-11T15:20:48.456Z,3.20
2023-10-11T15:25:50.113Z,3.30
2023-10-11T15:30:52.352Z,3.78
2023-10-11T15:35:57.429Z,3.60
2023-10-11T15:41:05.876Z,3.65
2023-10-11T15:46:09.768Z,3.47
2023-10-11T15:51:16.939Z,3.90
2023-10-11T15:56:19.005Z,3.65
2023-10-11T16:01:20.813Z,3.88
2023-10-11T16:06:26.044Z,3.88
2023-10-11T16:11:31.555Z,3.78
2023-10-11T16:16:36.844Z,3.20
2023-10-11T16:21:43.533Z,4.05
2023-10-11T16:26:46.352Z,3.33
2023-10-11T16:31:51.261Z,3.25
2023-10-11T16:36:53.168Z,3.25
2023-10-11T16:41:57.881Z,3.10
2023-10-11T16:46:59.833Z,3.25
2023-10-11T16:52:01.481Z,2.85
2023-10-11T16:57:03.138Z,3.38
2023-10-11T17:02:05.804Z,3.25
2023-10-11T17:07:08.543Z,3.47
2023-10-11T17:12:11.640Z,3.40
2023-10-11T17:17:13.413Z,3.38
2023-10-11T17:22:15.118Z,3.28
2023-10-11T17:27:17.774Z,3.17
2023-10-11T17:32:19.483Z,3.05
2023-10-11T17:37:21.386Z,3.45
2023-10-11T17:42:23.233Z,3.47
2023-10-11T17:47:25.033Z,5.03
2023-10-11T17:52:28.184Z,3.20
2023-10-11T17:57:29.846Z,3.50
2023-10-11T18:02:31.798Z,3.42
2023-10-11T18:07:37.393Z,3.10
2023-10-11T18:12:39.082Z,3.25
2023-10-11T18:17:41.138Z,3.55
2023-10-11T18:22:43.828Z,2.70
2023-10-11T18:27:47.231Z,4.03
2023-10-11T18:32:49.175Z,3.60
2023-10-11T18:37:51.332Z,3.40
2023-10-11T18:42:56.540Z,3.17
2023-10-11T18:47:58.284Z,3.38
2023-10-11T18:53:01.865Z,3.95
2023-10-11T18:58:03.944Z,3.72
2023-10-11T19:03:08.649Z,3.97
2023-10-11T19:08:14.680Z,3.67
2023-10-11T19:13:16.319Z,3.45
2023-10-11T19:18:18.228Z,4.43
2023-10-11T19:23:20.623Z,4.03
2023-10-11T19:28:22.483Z,3.90
2023-10-11T19:33:27.800Z,3.60
2023-10-11T19:38:31.231Z,3.60
2023-10-11T19:43:36.533Z,3.90
2023-10-11T19:48:39.025Z,3.90
2023-10-11T19:53:41.641Z,4.25
2023-10-11T19:58:44.731Z,3.85
2023-10-11T20:03:53.612Z,3.50
2023-10-11T20:08:55.594Z,3.33
2023-10-11T20:13:57.185Z,3.20
2023-10-11T20:18:58.939Z,3.38
2023-10-11T20:24:00.713Z,3.53
2023-10-11T20:29:03.345Z,3.55
2023-10-11T20:34:05.228Z,3.55
2023-10-11T20:39:09.932Z,3.60
2023-10-11T20:44:12.542Z,3.80
2023-10-11T20:49:14.248Z,4.25
2023-10-11T20:54:18.494Z,4.18
2023-10-11T20:59:25.723Z,3.25
2023-10-11T21:04:28.037Z,4.15
2023-10-11T21:09:31.815Z,3.97
2023-10-11T21:14:35.399Z,4.13
2023-10-11T21:19:37.110Z,3.95
2023-10-11T21:24:38.796Z,4.20
2023-10-11T21:29:40.478Z,3.40
2023-10-11T21:34:42.418Z,4.10
2023-10-11T21:39:47.933Z,3.63
2023-10-11T21:44:49.656Z,4.43
2023-10-11T21:49:51.322Z,3.53
2023-10-11T21:54:53.029Z,4.00
2023-10-11T21:59:56.782Z,3.67
2023-10-11T22:05:00.904Z,3.88
2023-10-11T22:10:10.727Z,3.50
2023-10-11T22:15:13.696Z,3.75
2023-10-11T22:20:18.615Z,3.75
2023-10-11T22:25:25.495Z,3.33
2023-10-11T22:30:28.644Z,4.13
2023-10-11T22:35:31.718Z,3.38
2023-10-11T22:40:33.776Z,4.03
2023-10-11T22:45:40.277Z,3.80
2023-10-11T22:50:42.956Z,3.28
2023-10-11T22:55:44.628Z,3.47
2023-10-11T23:00:46.462Z,3.95
2023-10-11T23:05:48.124Z,3.63
2023-10-11T23:10:53.555Z,4.60
2023-10-11T23:15:55.992Z,4.00
2023-10-11T23:21:03.339Z,3.88
2023-10-11T23:26:07.979Z,4.45
2023-10-11T23:31:11.582Z,4.25
2023-10-11T23:36:13.782Z,4.13
2023-10-11T23:41:21.110Z,4.45
2023-10-11T23:46:27.387Z,3.70
2023-10-11T23:51:30.289Z,3.92
2023-10-11T23:56:32.172Z,3.70
